createdAt,value
2019-04-04T00:01:57.680Z,10.20
2019-04-04T00:07:02.513Z,10.30
2019-04-04T00:12:08.058Z,10.20
2019-04-04T00:17:13.572Z,10.30
2019-04-04T00:22:18.417Z,10.20
2019-04-04T00:27:23.244Z,10.20
2019-04-04T00:32:28.028Z,10.20
2019-04-04T00:37:35.718Z,10.20
2019-04-04T00:42:39.360Z,10.20
2019-04-04T00:47:44.202Z,10.30
2019-04-04T00:52:49.077Z,10.20
2019-04-04T00:57:54.006Z,10.10
2019-04-04T01:02:58.996Z,10.00
2019-04-04T01:08:06.638Z,10.00
2019-04-04T01:13:10.534Z,10.00
2019-04-04T01:18:16.052Z,9.90
2019-04-04T01:23:20.884Z,9.80
2019-04-04T01:28:25.707Z,9.70
2019-04-04T01:33:30.542Z,9.60
2019-04-04T01:38:35.310Z,9.60
2019-04-04T01:43:40.710Z,9.50
2019-04-04T01:48:45.697Z,9.40
2019-04-04T01:53:50.539Z,9.40
2019-04-04T01:58:56.036Z,9.30
2019-04-04T02:04:01.832Z,9.30
2019-04-04T02:09:07.665Z,9.20
2019-04-04T02:14:13.386Z,9.20
2019-04-04T02:19:18.213Z,9.20
2019-04-04T02:24:23.050Z,9.10
2019-04-04T02:29:27.876Z,9.10
2019-04-04T02:34:32.722Z,9.00
2019-04-04T02:39:37.890Z,8.90
2019-04-04T02:44:45.830Z,8.80
2019-04-04T02:49:51.089Z,8.90
2019-04-04T02:54:58.282Z,8.80
2019-04-04T03:00:02.631Z,8.70
2019-04-04T03:05:07.454Z,8.70
2019-04-04T03:10:15.186Z,8.70
2019-04-04T03:15:18.766Z,8.60
2019-04-04T03:20:23.573Z,8.50
2019-04-04T03:25:28.321Z,8.50
2019-04-04T03:30:33.164Z,8.40
2019-04-04T03:35:38.002Z,8.40
2019-04-04T03:40:42.820Z,8.40
2019-04-04T03:45:47.669Z,8.40
2019-04-04T03:50:52.477Z,8.30
2019-04-04T03:56:00.202Z,8.30
2019-04-04T04:01:03.787Z,8.30
2019-04-04T04:06:09.790Z,8.20
2019-04-04T04:11:14.792Z,8.10
2019-04-04T04:16:19.572Z,8.20
2019-04-04T04:21:24.902Z,8.10
2019-04-04T04:26:29.769Z,8.00
2019-04-04T04:31:34.627Z,8.10
2019-04-04T04:36:39.503Z,8.00
2019-04-04T04:41:44.346Z,8.00
2019-04-04T04:46:50.288Z,7.90
2019-04-04T04:51:55.607Z,7.80
2019-04-04T04:57:03.475Z,7.90
2019-04-04T05:02:07.163Z,7.90
2019-04-04T05:07:12.031Z,7.80
2019-04-04T05:12:16.884Z,7.80
2019-04-04T05:17:21.935Z,7.90
2019-04-04T05:22:26.739Z,7.90
2019-04-04T05:27:31.818Z,7.90
2019-04-04T05:32:36.689Z,7.90
2019-04-04T05:37:41.533Z,8.00
2019-04-04T05:42:46.410Z,8.10
2019-04-04T05:47:51.278Z,8.20
2019-04-04T05:52:56.069Z,8.20
2019-04-04T05:58:00.868Z,8.40
2019-04-04T06:03:05.793Z,8.50
2019-04-04T06:08:10.662Z,8.60
2019-04-04T06:13:15.409Z,8.70
2019-04-04T06:18:33.873Z,8.90
2019-04-04T06:23:38.713Z,9.00
2019-04-04T06:28:55.662Z,9.20
2019-04-04T06:34:00.498Z,9.30
2019-04-04T06:39:08.510Z,9.40
2019-04-04T06:44:13.724Z,9.50
2019-04-04T06:49:18.783Z,9.60
2019-04-04T06:54:25.676Z,9.80
2019-04-04T06:59:30.004Z,9.90
2019-04-04T07:04:36.035Z,10.10
2019-04-04T07:09:41.035Z,10.30
2019-04-04T07:14:49.239Z,10.40
2019-04-04T07:19:52.248Z,10.50
2019-04-04T07:24:57.089Z,10.80
2019-04-04T07:30:01.928Z,10.90
2019-04-04T07:35:07.957Z,11.20
2019-04-04T07:40:13.392Z,11.30
2019-04-04T07:45:18.242Z,11.70
2019-04-04T07:50:24.155Z,11.90
2019-04-04T07:55:29.534Z,12.30
2019-04-04T08:00:34.373Z,12.30
2019-04-04T08:05:39.308Z,12.50
2019-04-04T08:10:44.181Z,12.30
2019-04-04T08:15:49.012Z,12.30
2019-04-04T08:20:53.855Z,12.20
2019-04-04T08:25:58.626Z,12.20
2019-04-04T08:31:03.472Z,12.90
2019-04-04T08:36:08.323Z,13.00
2019-04-04T08:41:13.141Z,13.00
2019-04-04T08:46:19.869Z,13.40
2019-04-04T08:51:24.640Z,13.70
2019-04-04T08:56:29.484Z,13.80
2019-04-04T09:01:34.323Z,14.00
2019-04-04T09:06:39.731Z,14.50
2019-04-04T09:11:44.496Z,14.60
2019-04-04T09:16:49.422Z,14.90
2019-04-04T09:21:54.310Z,15.40
2019-04-04T09:26:59.147Z,15.40
2019-04-04T09:32:03.980Z,15.90
2019-04-04T09:37:09.011Z,16.30
2019-04-04T09:42:13.941Z,16.50
2019-04-04T09:47:18.772Z,16.60
2019-04-04T09:52:23.606Z,16.80
2019-04-04T09:57:28.445Z,16.80
2019-04-04T10:02:33.866Z,17.00
2019-04-04T10:07:39.578Z,17.00
2019-04-04T10:12:44.480Z,17.10
2019-04-04T10:17:49.602Z,17.20
2019-04-04T10:22:54.381Z,17.70
2019-04-04T10:27:59.225Z,17.90
2019-04-04T10:33:04.147Z,17.70
2019-04-04T10:38:08.989Z,17.80
2019-04-04T10:43:13.824Z,18.00
2019-04-04T10:48:18.652Z,17.80
2019-04-04T10:53:23.501Z,17.90
2019-04-04T10:58:28.382Z,18.10
2019-04-04T11:03:33.310Z,18.50
2019-04-04T11:08:38.522Z,18.70
2019-04-04T11:13:43.394Z,18.50
2019-04-04T11:18:48.253Z,18.80
2019-04-04T11:23:53.095Z,19.00
2019-04-04T11:28:57.924Z,19.00
2019-04-04T11:34:02.628Z,19.10
2019-04-04T11:39:07.779Z,19.40
2019-04-04T11:44:12.609Z,19.30
2019-04-04T11:49:17.398Z,18.90
2019-04-04T11:54:22.243Z,18.90
2019-04-04T11:59:39.322Z,19.00
2019-04-04T12:04:44.156Z,19.20
2019-04-04T12:09:49.097Z,19.30
2019-04-04T12:14:53.940Z,19.50
2019-04-04T12:19:58.882Z,19.40
2019-04-04T12:25:03.822Z,19.30
2019-04-04T12:30:09.858Z,19.50
2019-04-04T12:35:15.254Z,19.70
2019-04-04T12:40:21.277Z,19.80
2019-04-04T12:45:26.651Z,20.00
2019-04-04T12:50:31.501Z,19.70
2019-04-04T12:55:36.353Z,19.80
2019-04-04T13:00:41.188Z,19.80
2019-04-04T13:05:46.025Z,19.80
2019-04-04T13:10:51.533Z,19.90
2019-04-04T13:15:56.763Z,19.90
2019-04-04T13:21:01.640Z,19.90
2019-04-04T13:26:06.490Z,20.10
2019-04-04T13:31:11.265Z,20.10
2019-04-04T13:36:16.185Z,20.10
2019-04-04T13:41:22.083Z,20.20
2019-04-04T13:46:29.422Z,20.10
2019-04-04T13:51:33.968Z,19.60
2019-04-04T13:56:38.809Z,19.70
2019-04-04T14:01:43.647Z,19.50
2019-04-04T14:06:48.479Z,19.20
2019-04-04T14:11:54.384Z,19.50
2019-04-04T14:16:59.223Z,19.50
2019-04-04T14:22:04.069Z,19.70
2019-04-04T14:27:08.903Z,19.50
2019-04-04T14:32:13.766Z,19.40
2019-04-04T14:37:18.604Z,19.30
2019-04-04T14:42:23.445Z,19.50
2019-04-04T14:47:28.280Z,19.20
2019-04-04T14:52:33.123Z,19.10
2019-04-04T14:57:37.895Z,19.00
2019-04-04T15:02:42.730Z,18.90
2019-04-04T15:07:47.563Z,18.70
2019-04-04T15:12:52.493Z,18.70
2019-04-04T15:17:57.360Z,18.60
2019-04-04T15:23:02.118Z,18.40
2019-04-04T15:28:06.954Z,18.50
2019-04-04T15:33:11.789Z,18.30
2019-04-04T15:38:16.621Z,18.10
2019-04-04T15:43:21.452Z,17.90
2019-04-04T15:48:28.766Z,17.80
2019-04-04T15:53:33.601Z,17.80
2019-04-04T15:58:38.436Z,17.70
2019-04-04T16:03:43.279Z,17.70
2019-04-04T16:08:48.036Z,17.60
2019-04-04T16:13:52.991Z,17.50
2019-04-04T16:18:57.858Z,17.30
2019-04-04T16:24:02.697Z,17.20
2019-04-04T16:29:07.534Z,17.00
2019-04-04T16:34:12.373Z,16.90
2019-04-04T16:39:17.213Z,16.80
2019-04-04T16:44:22.054Z,16.70
2019-04-04T16:49:26.884Z,16.60
2019-04-04T16:54:31.667Z,16.50
2019-04-04T16:59:36.502Z,16.30
2019-04-04T17:04:41.277Z,16.20
2019-04-04T17:09:46.362Z,16.10
2019-04-04T17:14:51.911Z,16.00
2019-04-04T17:19:56.746Z,15.80
2019-04-04T17:25:01.606Z,15.80
2019-04-04T17:30:08.295Z,15.70
2019-04-04T17:35:13.486Z,15.60
2019-04-04T17:40:19.282Z,15.50
2019-04-04T17:45:24.157Z,15.40
2019-04-04T17:50:29.021Z,15.30
2019-04-04T17:55:33.861Z,15.20
2019-04-04T18:00:38.894Z,15.20
2019-04-04T18:05:43.661Z,15.10
2019-04-04T18:10:48.442Z,15.10
2019-04-04T18:15:53.374Z,15.00
2019-04-04T18:20:58.278Z,15.00
2019-04-04T18:26:03.175Z,14.90
2019-04-04T18:31:08.139Z,14.80
2019-04-04T18:36:12.993Z,14.70
2019-04-04T18:41:17.922Z,14.70
2019-04-04T18:46:22.766Z,14.60
2019-04-04T18:51:28.544Z,14.60
2019-04-04T18:56:33.372Z,14.50
2019-04-04T19:01:38.234Z,14.50
2019-04-04T19:06:43.076Z,14.40
2019-04-04T19:11:47.985Z,14.50
2019-04-04T19:16:52.981Z,14.40
2019-04-04T19:21:57.890Z,14.30
2019-04-04T19:27:04.438Z,14.30
2019-04-04T19:32:10.847Z,14.30
2019-04-04T19:37:15.746Z,14.30
2019-04-04T19:42:22.060Z,14.10
2019-04-04T19:47:26.902Z,14.10
2019-04-04T19:52:31.732Z,14.10
2019-04-04T19:57:44.097Z,14.00
2019-04-04T20:02:48.929Z,13.90
2019-04-04T20:07:53.696Z,13.90
2019-04-04T20:12:59.212Z,13.80
2019-04-04T20:18:04.184Z,13.80
2019-04-04T20:23:09.012Z,13.90
2019-04-04T20:28:13.846Z,13.90
2019-04-04T20:33:18.689Z,13.80
2019-04-04T20:38:23.478Z,13.80
2019-04-04T20:43:28.293Z,13.80
2019-04-04T20:48:33.137Z,13.80
2019-04-04T20:53:38.993Z,13.90
2019-04-04T20:58:43.832Z,13.80
2019-04-04T21:03:50.589Z,13.70
2019-04-04T21:08:55.466Z,13.70
2019-04-04T21:14:00.311Z,13.70
2019-04-04T21:19:05.235Z,13.50
2019-04-04T21:24:10.136Z,13.40
2019-04-04T21:29:15.288Z,13.30
2019-04-04T21:34:20.132Z,13.20
2019-04-04T21:39:24.964Z,13.10
2019-04-04T21:44:29.806Z,13.10
2019-04-04T21:49:34.638Z,13.00
2019-04-04T21:54:39.412Z,12.90
2019-04-04T21:59:44.240Z,12.80
2019-04-04T22:04:49.288Z,12.70
2019-04-04T22:09:54.137Z,12.60
2019-04-04T22:14:58.905Z,12.50
2019-04-04T22:20:04.948Z,12.40
2019-04-04T22:25:09.891Z,12.40
2019-04-04T22:30:14.937Z,12.30
2019-04-04T22:35:22.709Z,12.20
2019-04-04T22:40:27.543Z,12.10
2019-04-04T22:45:32.393Z,11.90
2019-04-04T22:50:37.144Z,11.80
2019-04-04T22:55:41.991Z,11.70
2019-04-04T23:00:46.825Z,11.60
2019-04-04T23:05:51.660Z,11.50
2019-04-04T23:10:56.424Z,11.40
2019-04-04T23:16:01.200Z,11.30
2019-04-04T23:21:06.387Z,11.10
2019-04-04T23:26:11.212Z,11.00
2019-04-04T23:31:15.905Z,10.90
2019-04-04T23:36:20.740Z,10.70
2019-04-04T23:41:25.511Z,10.50
2019-04-04T23:46:30.276Z,10.40
2019-04-04T23:51:35.036Z,10.30
2019-04-04T23:56:39.877Z,10.20
